Time,TemperatureF,DewpointF,PressureIn,WindDirection,WindDirectionDegrees,WindSpeedMPH,WindSpeedGustMPH,Humidity,HourlyPrecipIn,Conditions,Clouds,dailyrainin,SoftwareType,DateUTC
2013-04-04 00:10:00,43.5,38.5,29.99,SE,140,0.0,0.0,82,0.00,,,0.00,meteobridge,2013-04-04 07:10:00,
2013-04-04 00:26:00,42.6,38.5,29.99,SE,140,0.0,0.0,85,0.00,,,0.00,meteobridge,2013-04-04 07:26:00,
2013-04-04 00:41:00,42.4,37.6,29.99,SE,140,0.0,0.0,83,0.00,,,0.00,meteobridge,2013-04-04 07:41:00,
2013-04-04 00:56:00,42.1,37.6,29.99,SE,140,0.0,0.0,84,0.00,,,0.00,meteobridge,2013-04-04 07:56:00,
2013-04-04 01:11:00,41.7,37.6,29.99,SE,140,0.0,0.0,85,0.00,,,0.00,meteobridge,2013-04-04 08:11:00,
2013-04-04 01:41:00,41.5,37.6,29.98,SE,126,0.0,0.0,86,0.00,,,0.00,meteobridge,2013-04-04 08:41:00,
2013-04-04 01:56:00,40.8,37.2,29.98,SE,126,0.0,0.0,87,0.00,,,0.00,meteobridge,2013-04-04 08:56:00,
2013-04-04 02:11:00,40.6,37.0,29.98,SE,125,0.0,0.0,87,0.00,,,0.00,meteobridge,2013-04-04 09:11:00,
2013-04-04 02:41:00,42.3,37.8,29.97,East,93,0.0,0.0,84,0.00,,,0.00,meteobridge,2013-04-04 09:41:00,
2013-04-04 02:56:00,40.8,36.7,29.97,South,174,0.0,0.9,85,0.00,,,0.00,meteobridge,2013-04-04 09:56:00,
2013-04-04 03:11:00,40.8,37.2,29.97,SE,145,0.9,0.9,87,0.00,,,0.00,meteobridge,2013-04-04 10:11:00,
2013-04-04 03:26:00,40.3,36.7,29.97,SE,145,0.0,0.0,87,0.00,,,0.00,meteobridge,2013-04-04 10:26:00,
2013-04-04 03:42:00,40.3,37.0,29.96,SE,145,0.0,0.0,88,0.00,,,0.00,meteobridge,2013-04-04 10:42:00,
2013-04-04 03:57:00,39.7,36.5,29.96,SE,144,0.0,0.0,88,0.00,,,0.00,meteobridge,2013-04-04 10:57:00,
2013-04-04 04:12:00,40.1,37.4,29.96,NNE,15,0.0,0.9,90,0.00,,,0.00,meteobridge,2013-04-04 11:12:00,
2013-04-04 04:27:00,41.4,38.1,29.95,North,349,0.0,0.0,88,0.00,,,0.00,meteobridge,2013-04-04 11:27:00,
2013-04-04 04:42:00,42.3,38.7,29.95,SE,141,0.0,0.9,87,0.00,,,0.00,meteobridge,2013-04-04 11:42:00,
2013-04-04 04:57:00,42.4,38.5,29.94,NE,51,0.0,0.9,86,0.00,,,0.00,meteobridge,2013-04-04 11:57:00,
2013-04-04 05:12:00,42.4,38.5,29.93,NE,48,0.0,0.9,86,0.00,,,0.00,meteobridge,2013-04-04 12:12:00,
2013-04-04 05:27:00,41.7,38.1,29.93,NE,37,0.9,0.9,87,0.00,,,0.00,meteobridge,2013-04-04 12:27:00,
2013-04-04 05:42:00,41.5,37.9,29.93,ENE,70,0.0,0.0,87,0.00,,,0.00,meteobridge,2013-04-04 12:42:00,
2013-04-04 05:57:00,41.5,37.9,29.92,NE,34,0.0,0.9,87,0.00,,,0.00,meteobridge,2013-04-04 12:57:00,
2013-04-04 06:13:00,41.2,37.6,29.92,NNE,32,0.0,2.0,87,0.00,,,0.00,meteobridge,2013-04-04 13:13:00,
2013-04-04 06:28:00,41.4,37.8,29.92,ESE,115,0.0,0.0,87,0.00,,,0.00,meteobridge,2013-04-04 13:28:00,
2013-04-04 06:43:00,40.8,37.6,29.90,ENE,66,0.0,0.0,88,0.00,,,0.00,meteobridge,2013-04-04 13:43:00,
2013-04-04 06:58:00,40.8,37.6,29.91,ESE,119,0.0,0.0,88,0.00,,,0.00,meteobridge,2013-04-04 13:58:00,
2013-04-04 07:14:00,40.8,37.8,29.91,ESE,119,0.0,0.0,89,0.00,,,0.00,meteobridge,2013-04-04 14:14:00,
2013-04-04 07:29:00,41.9,38.8,29.91,ESE,118,0.0,0.9,89,0.00,,,0.00,meteobridge,2013-04-04 14:29:00,
2013-04-04 07:44:00,43.3,39.4,29.90,ESE,113,0.0,0.0,86,0.00,,,0.00,meteobridge,2013-04-04 14:44:00,
2013-04-04 07:59:00,43.9,39.7,29.90,ESE,115,0.0,0.0,85,0.00,,,0.00,meteobridge,2013-04-04 14:59:00,
2013-04-04 08:14:00,44.8,40.3,29.89,SE,131,0.0,0.0,84,0.00,,,0.00,meteobridge,2013-04-04 15:14:00,
2013-04-04 08:29:00,45.7,40.8,29.89,SE,135,0.0,0.0,83,0.00,,,0.00,meteobridge,2013-04-04 15:29:00,
2013-04-04 08:44:00,46.6,41.0,29.88,SE,134,0.0,0.0,81,0.00,,,0.00,meteobridge,2013-04-04 15:44:00,
2013-04-04 08:59:00,47.7,40.8,29.87,SSE,148,0.0,0.9,77,0.00,,,0.00,meteobridge,2013-04-04 15:59:00,
2013-04-04 09:14:00,48.4,40.8,29.86,NE,52,2.0,2.9,75,0.00,,,0.00,meteobridge,2013-04-04 16:14:00,
2013-04-04 09:29:00,49.3,41.0,29.86,NE,48,2.0,2.0,73,0.00,,,0.00,meteobridge,2013-04-04 16:29:00,
2013-04-04 09:45:00,49.8,40.8,29.86,NNE,18,0.0,4.9,71,0.00,,,0.00,meteobridge,2013-04-04 16:45:00,
2013-04-04 10:00:00,51.3,41.9,29.86,ENE,60,0.0,0.9,70,0.00,,,0.00,meteobridge,2013-04-04 17:00:00,
2013-04-04 10:15:00,51.8,40.8,29.85,ENE,72,0.9,4.9,66,0.00,,,0.00,meteobridge,2013-04-04 17:15:00,
2013-04-04 10:30:00,52.2,41.9,29.85,ENE,58,2.0,2.0,68,0.00,,,0.00,meteobridge,2013-04-04 17:30:00,
2013-04-04 10:45:00,52.9,41.9,29.85,SE,124,0.9,0.9,66,0.00,,,0.00,meteobridge,2013-04-04 17:45:00,
2013-04-04 11:00:00,53.8,41.5,29.84,NE,54,2.0,4.0,63,0.00,,,0.00,meteobridge,2013-04-04 18:00:00,
2013-04-04 11:15:00,54.0,41.7,29.83,ENE,60,0.0,0.9,63,0.00,,,0.00,meteobridge,2013-04-04 18:15:00,
2013-04-04 11:30:00,54.3,41.5,29.83,East,97,0.0,2.0,62,0.00,,,0.00,meteobridge,2013-04-04 18:30:00,
2013-04-04 11:45:00,54.3,41.5,29.82,ESE,102,0.9,0.9,62,0.00,,,0.00,meteobridge,2013-04-04 18:45:00,
2013-04-04 12:00:00,54.7,41.5,29.81,East,90,0.0,4.9,61,0.00,,,0.00,meteobridge,2013-04-04 19:00:00,
2013-04-04 12:15:00,54.9,42.1,29.81,NE,47,0.9,0.9,62,0.00,,,0.00,meteobridge,2013-04-04 19:15:00,
2013-04-04 12:30:00,55.6,43.2,29.81,ESE,105,0.0,0.0,63,0.00,,,0.00,meteobridge,2013-04-04 19:30:00,
2013-04-04 12:45:00,55.8,42.1,29.80,NE,56,0.9,0.9,60,0.00,,,0.00,meteobridge,2013-04-04 19:45:00,
2013-04-04 13:00:00,55.9,42.6,29.79,North,356,0.0,0.0,61,0.00,,,0.00,meteobridge,2013-04-04 20:00:00,
2013-04-04 13:15:00,55.2,46.8,29.79,North,356,0.0,0.0,73,0.00,,,0.00,meteobridge,2013-04-04 20:15:00,
2013-04-04 13:30:00,54.1,47.1,29.78,NE,41,0.0,0.0,77,0.01,,,0.01,meteobridge,2013-04-04 20:30:00,
2013-04-04 13:45:00,53.1,47.7,29.78,NE,38,0.0,0.0,82,0.03,,,0.03,meteobridge,2013-04-04 20:45:00,
2013-04-04 14:00:00,52.9,49.1,29.77,East,96,0.0,0.0,87,0.04,,,0.04,meteobridge,2013-04-04 21:00:00,
2013-04-04 14:16:00,53.1,49.3,29.77,East,97,0.0,0.0,87,0.04,,,0.05,meteobridge,2013-04-04 21:16:00,
2013-04-04 14:31:00,52.9,48.7,29.77,SW,234,0.0,0.9,86,0.04,,,0.06,meteobridge,2013-04-04 21:31:00,
2013-04-04 14:46:00,52.5,49.5,29.77,SSE,167,0.0,0.0,89,0.03,,,0.06,meteobridge,2013-04-04 21:46:00,
2013-04-04 15:01:00,52.3,49.5,29.76,SE,129,0.0,0.0,90,0.03,,,0.07,meteobridge,2013-04-04 22:01:00,
2013-04-04 15:16:00,52.2,49.1,29.76,SE,129,0.0,0.0,89,0.02,,,0.07,meteobridge,2013-04-04 22:16:00,
2013-04-04 15:31:00,51.8,48.9,29.75,East,96,0.0,0.0,90,0.01,,,0.07,meteobridge,2013-04-04 22:31:00,
2013-04-04 16:01:00,51.6,49.5,29.76,SSE,155,0.0,0.0,92,0.01,,,0.08,meteobridge,2013-04-04 23:01:00,
2013-04-04 16:17:00,51.6,49.6,29.75,South,186,0.0,0.0,93,0.02,,,0.09,meteobridge,2013-04-04 23:17:00,
2013-04-04 16:32:00,52.0,50.0,29.75,South,186,0.0,0.0,93,0.02,,,0.09,meteobridge,2013-04-04 23:32:00,
2013-04-04 16:47:00,52.3,50.0,29.75,SE,146,0.0,0.9,92,0.03,,,0.11,meteobridge,2013-04-04 23:47:00,
2013-04-04 17:02:00,52.2,49.6,29.75,SE,132,0.0,2.0,91,0.03,,,0.11,meteobridge,2013-04-05 00:02:00,
2013-04-04 17:17:00,52.0,49.5,29.75,SSE,157,0.0,0.0,91,0.02,,,0.11,meteobridge,2013-04-05 00:17:00,
2013-04-04 17:32:00,51.4,48.9,29.75,SSE,159,0.0,2.0,91,0.03,,,0.12,meteobridge,2013-04-05 00:32:00,
2013-04-04 17:47:00,51.3,48.7,29.75,SE,144,0.0,2.9,91,0.01,,,0.12,meteobridge,2013-04-05 00:47:00,
2013-04-04 18:02:00,50.7,48.6,29.75,SSE,151,2.0,2.0,92,0.02,,,0.13,meteobridge,2013-04-05 01:02:00,
2013-04-04 18:17:00,50.5,48.4,29.74,SSW,193,0.9,4.0,92,0.03,,,0.14,meteobridge,2013-04-05 01:17:00,
2013-04-04 18:32:00,50.4,48.4,29.74,SE,135,0.0,0.9,93,0.02,,,0.14,meteobridge,2013-04-05 01:32:00,
2013-04-04 18:47:00,50.4,48.2,29.73,SE,143,0.9,0.9,92,0.02,,,0.14,meteobridge,2013-04-05 01:47:00,
2013-04-04 19:02:00,50.2,48.2,29.73,SSE,148,0.0,0.0,93,0.02,,,0.15,meteobridge,2013-04-05 02:02:00,
2013-04-04 19:17:00,49.8,48.2,29.73,SSE,155,0.0,0.0,94,0.02,,,0.16,meteobridge,2013-04-05 02:17:00,
2013-04-04 19:32:00,49.5,48.0,29.72,SSE,155,0.0,0.0,95,0.02,,,0.16,meteobridge,2013-04-05 02:32:00,
2013-04-04 19:48:00,49.3,47.8,29.72,SSE,155,0.0,0.0,95,0.02,,,0.16,meteobridge,2013-04-05 02:48:00,
2013-04-04 20:03:00,49.1,47.7,29.72,SE,134,0.0,0.0,95,0.01,,,0.16,meteobridge,2013-04-05 03:03:00,
2013-04-04 20:18:00,48.9,47.5,29.72,SE,134,0.0,0.0,95,0.00,,,0.16,meteobridge,2013-04-05 03:18:00,
2013-04-04 20:33:00,48.6,46.9,29.72,SE,134,0.0,0.0,94,0.00,,,0.16,meteobridge,2013-04-05 03:33:00,
2013-04-04 20:48:00,48.0,46.9,29.73,SE,135,0.0,0.0,96,0.00,,,0.16,meteobridge,2013-04-05 03:48:00,
2013-04-04 21:03:00,47.8,46.8,29.74,SE,135,0.0,0.0,96,0.00,,,0.16,meteobridge,2013-04-05 04:03:00,
2013-04-04 21:18:00,47.8,46.8,29.75,SE,134,0.0,0.0,96,0.00,,,0.16,meteobridge,2013-04-05 04:18:00,
2013-04-04 21:33:00,48.6,46.9,29.75,SSE,155,0.0,0.0,94,0.00,,,0.16,meteobridge,2013-04-05 04:33:00,
2013-04-04 22:18:00,50.2,47.3,29.76,South,190,2.9,4.0,90,0.00,,,0.16,meteobridge,2013-04-05 05:18:00,
2013-04-04 22:34:00,50.2,47.1,29.76,SE,146,4.0,4.9,89,0.00,,,0.16,meteobridge,2013-04-05 05:34:00,
2013-04-04 23:03:00,51.1,46.8,29.77,NW,308,0.9,15.0,85,0.00,,,0.16,meteobridge,2013-04-05 06:03:00,
2013-04-04 23:19:00,50.9,46.6,29.78,SE,142,0.0,0.9,85,0.00,,,0.16,meteobridge,2013-04-05 06:19:00,
2013-04-04 23:33:00,50.5,46.2,29.78,SW,235,0.0,0.9,85,0.00,,,0.16,meteobridge,2013-04-05 06:33:00,
2013-04-04 23:48:00,50.4,46.0,29.78,SW,229,0.0,2.0,85,0.00,,,0.16,meteobridge,2013-04-05 06:48:00,